createdAt,value
2022-10-13T00:00:46.935Z,97929.91
2022-10-13T00:03:13.734Z,97895.41
2022-10-13T00:05:42.366Z,97783.88
2022-10-13T00:08:09.345Z,97801.38
2022-10-13T00:10:42.102Z,97896.22
2022-10-13T00:13:12.257Z,97938.91
2022-10-13T00:15:40.345Z,97950.34
2022-10-13T00:18:07.015Z,97897.06
2022-10-13T00:20:34.459Z,97849.31
2022-10-13T00:23:01.116Z,97859.09
2022-10-13T00:25:28.282Z,97897.91
2022-10-13T00:27:54.866Z,97833.22
2022-10-13T00:30:27.000Z,97955.66
2022-10-13T00:32:53.594Z,97961.84
2022-10-13T00:35:20.165Z,97902.19
2022-10-13T00:37:46.810Z,97827.16
2022-10-13T00:40:13.409Z,97809.56
2022-10-13T00:42:41.725Z,97947.97
2022-10-13T00:45:17.623Z,97975.22
2022-10-13T00:47:48.131Z,97837.91
2022-10-13T00:50:26.182Z,97961.69
2022-10-13T00:52:56.502Z,97812.72
2022-10-13T00:55:28.152Z,97970.22
2022-10-13T00:57:55.937Z,97964.53
2022-10-13T01:00:30.253Z,97970.16
2022-10-13T01:02:57.196Z,97975.16
2022-10-13T01:05:24.630Z,97874.75
2022-10-13T01:07:56.795Z,97966.41
2022-10-13T01:10:43.113Z,97960.50
2022-10-13T01:13:13.754Z,97953.84
2022-10-13T01:15:58.314Z,97949.69
2022-10-13T01:18:52.849Z,97953.66
2022-10-13T01:21:38.881Z,97954.03
2022-10-13T01:24:37.831Z,97859.00
2022-10-13T01:27:22.697Z,97950.84
2022-10-13T01:29:58.230Z,97937.44
2022-10-13T01:32:33.699Z,97938.94
2022-10-13T01:35:06.947Z,97919.94
2022-10-13T01:37:56.529Z,97932.56
2022-10-13T01:40:29.051Z,97937.66
2022-10-13T01:43:12.783Z,97933.94
2022-10-13T01:45:48.811Z,97937.75
2022-10-13T01:48:17.826Z,97941.88
2022-10-13T01:50:53.078Z,97853.94
2022-10-13T01:53:21.189Z,97944.97
2022-10-13T01:55:56.163Z,97888.78
2022-10-13T01:58:25.065Z,97934.19
2022-10-13T02:01:17.046Z,97841.31
2022-10-13T02:04:08.881Z,97849.94
2022-10-13T02:06:50.978Z,97882.50
2022-10-13T02:09:47.856Z,97934.88
2022-10-13T02:12:27.760Z,97932.09
2022-10-13T02:14:57.241Z,97880.81
2022-10-13T02:17:26.282Z,97919.72
2022-10-13T02:19:54.219Z,97884.59
2022-10-13T02:22:24.258Z,97915.00
2022-10-13T02:24:52.608Z,97884.75
2022-10-13T02:27:19.956Z,97923.47
2022-10-13T02:29:52.293Z,97919.06
2022-10-13T02:32:19.383Z,97883.13
2022-10-13T02:34:46.474Z,97722.41
2022-10-13T02:37:13.054Z,97911.69
2022-10-13T02:39:39.873Z,97915.44
2022-10-13T02:42:10.947Z,97906.44
2022-10-13T02:44:37.476Z,97837.97
2022-10-13T02:47:04.114Z,97894.91
2022-10-13T02:49:30.676Z,97908.78
2022-10-13T02:51:57.358Z,97904.19
2022-10-13T02:54:23.958Z,97878.84
2022-10-13T02:56:53.402Z,97869.91
2022-10-13T02:59:20.021Z,97896.00
2022-10-13T03:01:46.665Z,97889.25
2022-10-13T03:04:13.280Z,97771.31
2022-10-13T03:06:39.842Z,97887.75
2022-10-13T03:09:07.509Z,97799.06
2022-10-13T03:11:35.392Z,97838.19
2022-10-13T03:14:02.373Z,97907.94
2022-10-13T03:16:29.063Z,97780.09
2022-10-13T03:18:55.690Z,97892.78
2022-10-13T03:21:22.371Z,97908.63
2022-10-13T03:23:48.983Z,97906.81
2022-10-13T03:26:16.242Z,97903.53
2022-10-13T03:28:43.146Z,97905.00
2022-10-13T03:31:12.658Z,97901.56
2022-10-13T03:33:40.695Z,97903.88
2022-10-13T03:36:07.648Z,97901.94
2022-10-13T03:38:35.599Z,97904.41
2022-10-13T03:41:13.842Z,97847.16
2022-10-13T03:43:41.961Z,97911.97
2022-10-13T03:46:11.161Z,97912.66
2022-10-13T03:48:38.136Z,97918.44
2022-10-13T03:51:14.412Z,97912.19
2022-10-13T03:53:45.608Z,97913.53
2022-10-13T03:56:20.968Z,97918.34
2022-10-13T03:58:55.931Z,97868.38
2022-10-13T04:01:25.070Z,97908.50
2022-10-13T04:03:55.666Z,97900.09
2022-10-13T04:06:23.636Z,97911.34
2022-10-13T04:08:51.584Z,97826.09
2022-10-13T04:11:19.022Z,97911.53
2022-10-13T04:13:50.488Z,97839.34
2022-10-13T04:16:26.031Z,97907.47
2022-10-13T04:19:02.478Z,97884.75
2022-10-13T04:21:30.863Z,97900.59
2022-10-13T04:23:59.253Z,97818.13
2022-10-13T04:26:29.346Z,97901.09
2022-10-13T04:28:57.389Z,97902.41
2022-10-13T04:31:24.687Z,97883.94
2022-10-13T04:33:51.678Z,97786.03
2022-10-13T04:36:18.860Z,97904.44
2022-10-13T04:38:48.919Z,97901.81
2022-10-13T04:41:17.061Z,97895.41
2022-10-13T04:43:44.368Z,97893.47
2022-10-13T04:46:14.920Z,97794.88
2022-10-13T04:48:42.142Z,97885.25
2022-10-13T04:51:11.746Z,97872.75
2022-10-13T04:53:38.797Z,97885.91
2022-10-13T04:56:11.551Z,97883.97
2022-10-13T04:58:39.047Z,97877.56
2022-10-13T05:01:08.753Z,97875.59
2022-10-13T05:03:35.394Z,97857.00
2022-10-13T05:06:01.960Z,97874.19
2022-10-13T05:08:28.725Z,97831.00
2022-10-13T05:10:59.125Z,97867.63
2022-10-13T05:13:27.474Z,97882.22
2022-10-13T05:15:57.251Z,97861.06
2022-10-13T05:18:24.342Z,97775.19
2022-10-13T05:20:50.951Z,97775.88
2022-10-13T05:23:17.916Z,97853.50
2022-10-13T05:25:44.690Z,97854.69
2022-10-13T05:28:13.781Z,97857.66
2022-10-13T05:30:40.570Z,97818.75
2022-10-13T05:33:07.106Z,97844.16
2022-10-13T05:35:33.669Z,97747.88
2022-10-13T05:38:00.262Z,97807.53
2022-10-13T05:40:28.410Z,97793.22
2022-10-13T05:43:00.434Z,97857.22
2022-10-13T05:45:29.555Z,97778.59
2022-10-13T05:47:56.123Z,97844.06
2022-10-13T05:50:22.851Z,97730.84
2022-10-13T05:52:50.338Z,97754.44
2022-10-13T05:55:19.026Z,97841.78
2022-10-13T05:57:51.707Z,97745.88
2022-10-13T06:00:20.168Z,97861.91
2022-10-13T06:02:55.035Z,97786.63
2022-10-13T06:05:24.465Z,97829.63
2022-10-13T06:07:54.216Z,97707.09
2022-10-13T06:10:21.094Z,97854.88
2022-10-13T06:12:47.712Z,97729.06
2022-10-13T06:15:14.343Z,97832.97
2022-10-13T06:17:40.954Z,97750.13
2022-10-13T06:20:08.570Z,97859.31
2022-10-13T06:22:37.804Z,97791.31
2022-10-13T06:25:06.478Z,97853.91
2022-10-13T06:27:33.531Z,97860.16
2022-10-13T06:30:00.115Z,97858.81
2022-10-13T06:32:26.738Z,97727.81
2022-10-13T06:34:53.277Z,97842.50
2022-10-13T06:37:23.444Z,97850.78
2022-10-13T06:39:52.848Z,97816.19
2022-10-13T06:42:19.726Z,97743.25
2022-10-13T06:44:50.784Z,97861.13
2022-10-13T06:47:17.853Z,97806.66
2022-10-13T06:49:44.592Z,97825.22
2022-10-13T06:52:12.663Z,97862.09
2022-10-13T06:54:40.345Z,97855.88
2022-10-13T06:57:07.004Z,97859.50
2022-10-13T06:59:33.898Z,97863.41
2022-10-13T07:02:00.745Z,97746.69
2022-10-13T07:04:28.220Z,97731.06
2022-10-13T07:06:57.742Z,97842.00
2022-10-13T07:09:24.375Z,97863.06
2022-10-13T07:11:51.039Z,97794.06
2022-10-13T07:14:17.943Z,97864.81
2022-10-13T07:16:44.805Z,97850.31
2022-10-13T07:19:11.471Z,97722.47
2022-10-13T07:21:41.081Z,97859.50
2022-10-13T07:24:07.946Z,97737.06
2022-10-13T07:26:34.677Z,97770.13
2022-10-13T07:29:02.767Z,97853.97
2022-10-13T07:31:29.405Z,97856.91
2022-10-13T07:33:59.032Z,97798.81
2022-10-13T07:36:28.022Z,97846.97
2022-10-13T07:38:54.606Z,97769.97
2022-10-13T07:41:21.238Z,97849.09
2022-10-13T07:43:47.870Z,97849.22
2022-10-13T07:46:14.493Z,97852.50
2022-10-13T07:48:41.717Z,97629.88
2022-10-13T07:51:11.294Z,97837.59
2022-10-13T07:53:38.423Z,97839.06
2022-10-13T07:56:07.509Z,97789.88
2022-10-13T07:58:37.384Z,97841.38
2022-10-13T08:01:04.433Z,97843.66
2022-10-13T08:03:32.674Z,97710.50
2022-10-13T08:06:04.813Z,97849.72
2022-10-13T08:08:32.633Z,97715.03
2022-10-13T08:11:07.810Z,97747.03
2022-10-13T08:13:34.837Z,97860.66
2022-10-13T08:16:12.941Z,97809.44
2022-10-13T08:18:39.520Z,97856.25
2022-10-13T08:21:45.825Z,97848.84
2022-10-13T08:23:59.442Z,97857.03
2022-10-13T08:26:29.151Z,97853.66
2022-10-13T08:31:43.646Z,97818.44
2022-10-13T08:34:10.921Z,97856.34
2022-10-13T08:36:38.763Z,97833.72
2022-10-13T08:39:05.891Z,97778.50
2022-10-13T08:41:40.551Z,97849.72
2022-10-13T08:47:21.295Z,97817.59
2022-10-13T08:49:48.205Z,97707.13
2022-10-13T08:52:21.579Z,97770.88
2022-10-13T08:54:49.361Z,97836.28
2022-10-13T08:57:17.609Z,97834.41
2022-10-13T08:59:44.690Z,97835.50
2022-10-13T09:02:31.405Z,97838.03
2022-10-13T09:05:03.571Z,97782.44
2022-10-13T09:07:36.866Z,97801.00
2022-10-13T09:10:04.212Z,97797.78
2022-10-13T09:12:31.492Z,97823.81
2022-10-13T09:15:00.011Z,97835.63
2022-10-13T09:17:27.922Z,97840.06
2022-10-13T09:20:05.596Z,97831.81
2022-10-13T09:22:37.856Z,97832.75
2022-10-13T09:25:11.855Z,97632.19
2022-10-13T09:28:00.346Z,97832.25
2022-10-13T09:30:43.293Z,97831.91
2022-10-13T09:33:11.825Z,97831.94
2022-10-13T09:35:47.395Z,97683.72
2022-10-13T09:38:22.924Z,97770.56
2022-10-13T09:41:00.240Z,97835.38
2022-10-13T09:43:47.301Z,97835.13
2022-10-13T09:46:29.608Z,97838.75
2022-10-13T09:49:02.108Z,97831.38
2022-10-13T09:51:41.568Z,97822.25
2022-10-13T09:54:35.551Z,97832.31
2022-10-13T09:57:24.665Z,97829.66
2022-10-13T10:00:17.032Z,97816.50
2022-10-13T10:02:53.765Z,97828.66
2022-10-13T10:05:44.822Z,97821.53
2022-10-13T10:08:13.924Z,97717.72
2022-10-13T10:10:42.519Z,97814.38
2022-10-13T10:13:13.673Z,97772.31
2022-10-13T10:15:53.016Z,97801.25
2022-10-13T10:18:56.339Z,97802.47
2022-10-13T10:21:31.150Z,97803.72
2022-10-13T10:24:24.660Z,97796.78
2022-10-13T10:27:23.587Z,97805.72
2022-10-13T10:29:54.095Z,97783.78
2022-10-13T10:32:27.461Z,97803.13
2022-10-13T10:35:02.396Z,97802.19
2022-10-13T10:37:44.613Z,97806.25
2022-10-13T10:40:23.021Z,97799.63
2022-10-13T10:43:47.047Z,97795.00
2022-10-13T10:46:22.893Z,97798.53
2022-10-13T10:48:53.922Z,97788.25
2022-10-13T10:51:22.812Z,97781.88
2022-10-13T10:54:16.293Z,97785.34
2022-10-13T10:56:49.488Z,97783.72
2022-10-13T10:59:37.033Z,97787.75
2022-10-13T11:02:06.625Z,97782.06
2022-10-13T11:04:45.370Z,97779.41
2022-10-13T11:07:43.673Z,97776.75
2022-10-13T11:10:13.125Z,97773.72
2022-10-13T11:12:51.915Z,97773.38
2022-10-13T11:15:25.909Z,97770.72
2022-10-13T11:17:52.545Z,97709.09
2022-10-13T11:20:22.041Z,97761.38
2022-10-13T11:22:57.728Z,97753.88
2022-10-13T11:25:41.002Z,97759.59
2022-10-13T11:28:22.919Z,97752.09
2022-10-13T11:31:05.302Z,97757.25
2022-10-13T11:33:41.171Z,97749.19
2022-10-13T11:36:48.331Z,97743.34
2022-10-13T11:39:27.984Z,97746.72
2022-10-13T11:42:25.657Z,97737.25
2022-10-13T11:44:56.899Z,97733.69
2022-10-13T11:47:42.349Z,97720.88
2022-10-13T11:50:37.113Z,97621.00
2022-10-13T11:53:41.656Z,97720.41
2022-10-13T11:56:31.859Z,97718.00
2022-10-13T11:58:58.504Z,97616.72
2022-10-13T12:01:25.013Z,97664.03
2022-10-13T12:03:51.589Z,97712.72
2022-10-13T12:06:35.521Z,97633.91
2022-10-13T12:09:05.075Z,97710.81
2022-10-13T12:11:38.397Z,97697.50
2022-10-13T12:14:08.781Z,97698.69
2022-10-13T12:16:35.380Z,97695.81
2022-10-13T12:19:29.746Z,97692.94
2022-10-13T12:22:01.472Z,97681.09
2022-10-13T12:24:30.689Z,97672.13
2022-10-13T12:26:58.699Z,97680.94
2022-10-13T12:29:33.472Z,97609.13
2022-10-13T12:32:03.029Z,97666.19
2022-10-13T12:34:33.646Z,97670.34
2022-10-13T12:37:04.974Z,97672.19
2022-10-13T12:39:33.933Z,97679.53
2022-10-13T12:42:03.200Z,97677.44
2022-10-13T12:44:32.145Z,97673.28
2022-10-13T12:47:02.700Z,97676.13
2022-10-13T12:49:30.403Z,97677.53
2022-10-13T12:52:15.455Z,97675.28
2022-10-13T12:54:51.529Z,97676.09
2022-10-13T12:57:25.882Z,97680.38
2022-10-13T12:59:52.850Z,97542.00
2022-10-13T13:02:24.686Z,97599.72
2022-10-13T13:04:51.510Z,97666.16
2022-10-13T13:07:33.854Z,97672.41
2022-10-13T13:10:13.237Z,97622.41
2022-10-13T13:12:40.292Z,97670.34
2022-10-13T13:15:24.657Z,97682.50
2022-10-13T13:17:58.441Z,97486.38
2022-10-13T13:20:31.761Z,97603.63
2022-10-13T13:22:59.023Z,97606.75
2022-10-13T13:25:26.293Z,97577.13
2022-10-13T13:27:53.157Z,97538.47
2022-10-13T13:30:22.611Z,97648.84
2022-10-13T13:32:49.974Z,96927.28
2022-10-13T13:35:16.905Z,97656.25
2022-10-13T13:37:50.526Z,97643.72
2022-10-13T13:40:19.840Z,97656.47
2022-10-13T13:42:46.596Z,97480.44
2022-10-13T13:45:17.854Z,97625.84
2022-10-13T13:47:44.744Z,97648.16
2022-10-13T13:50:23.000Z,97643.03
2022-10-13T13:52:59.105Z,97629.75
2022-10-13T13:55:26.804Z,97648.97
2022-10-13T13:57:53.543Z,97642.19
2022-10-13T14:00:20.632Z,97604.91
2022-10-13T14:02:53.063Z,97645.47
2022-10-13T14:05:19.613Z,97604.78
2022-10-13T14:07:46.248Z,97533.16
2022-10-13T14:10:12.872Z,97640.63
2022-10-13T14:12:39.472Z,97617.69
2022-10-13T14:15:06.563Z,97641.88
2022-10-13T14:17:33.201Z,97585.34
2022-10-13T14:20:00.450Z,97635.53
2022-10-13T14:22:27.950Z,97514.63
2022-10-13T14:24:54.514Z,97564.94
2022-10-13T14:27:21.121Z,97630.44
2022-10-13T14:29:48.615Z,97516.66
2022-10-13T14:32:15.614Z,97624.69
2022-10-13T14:34:42.187Z,97632.66
2022-10-13T14:37:08.857Z,97634.31
2022-10-13T14:39:35.381Z,97618.59
2022-10-13T14:42:02.577Z,97633.09
2022-10-13T14:44:29.173Z,97633.72
2022-10-13T14:46:55.989Z,97600.03
2022-10-13T14:49:22.617Z,97620.69
2022-10-13T14:51:50.324Z,97535.31
2022-10-13T14:54:17.791Z,97575.78
2022-10-13T14:56:44.849Z,97617.78
2022-10-13T14:59:11.952Z,97265.88
2022-10-13T15:01:41.423Z,97617.19
2022-10-13T15:04:08.402Z,97618.00
2022-10-13T15:06:39.740Z,97608.22
2022-10-13T15:11:36.446Z,97610.84
2022-10-13T15:14:03.149Z,97505.03
2022-10-13T15:16:33.243Z,97593.03
2022-10-13T15:19:00.258Z,97610.56
2022-10-13T15:21:27.692Z,97483.28
2022-10-13T15:23:54.341Z,97574.47
2022-10-13T15:26:21.591Z,97523.47
2022-10-13T15:28:51.118Z,97603.25
2022-10-13T15:31:19.446Z,97562.34
2022-10-13T15:33:47.847Z,97598.94
2022-10-13T15:36:15.108Z,97448.66
2022-10-13T15:38:41.767Z,97523.09
2022-10-13T15:41:10.310Z,97563.41
2022-10-13T15:43:37.873Z,97535.59
2022-10-13T15:46:12.920Z,97602.72
2022-10-13T15:48:39.935Z,97487.22
2022-10-13T15:51:14.627Z,97612.03
2022-10-13T15:53:41.256Z,97489.69
2022-10-13T15:56:08.840Z,97556.50
2022-10-13T15:58:36.317Z,97614.56
2022-10-13T16:01:10.726Z,97615.78
2022-10-13T16:03:38.134Z,97619.81
2022-10-13T16:06:06.914Z,97624.69
2022-10-13T16:08:40.232Z,97614.03
2022-10-13T16:11:11.313Z,97594.75
2022-10-13T16:13:38.304Z,97623.88
2022-10-13T16:16:04.973Z,97584.91
2022-10-13T16:18:34.072Z,97500.69
2022-10-13T16:21:00.728Z,97514.97
2022-10-13T16:23:27.676Z,97612.03
2022-10-13T16:25:54.286Z,97480.88
2022-10-13T16:28:21.901Z,97621.66
2022-10-13T16:30:48.517Z,97455.22
2022-10-13T16:33:15.128Z,97571.69
2022-10-13T16:35:41.672Z,97618.41
2022-10-13T16:38:08.978Z,97616.72
2022-10-13T16:40:37.982Z,97617.88
2022-10-13T16:43:05.448Z,97571.38
2022-10-13T16:45:54.988Z,97612.91
2022-10-13T16:48:21.754Z,97472.19
2022-10-13T16:50:48.756Z,97568.47
2022-10-13T16:53:19.424Z,97526.38
2022-10-13T16:55:46.105Z,97501.53
2022-10-13T16:58:14.508Z,97602.38
2022-10-13T17:00:41.695Z,97610.03
2022-10-13T17:03:11.622Z,97608.31
2022-10-13T17:05:38.233Z,97594.47
2022-10-13T17:08:04.991Z,97604.66
2022-10-13T17:10:31.595Z,97456.53
2022-10-13T17:13:01.334Z,97435.94
2022-10-13T17:15:31.764Z,97547.59
2022-10-13T17:17:58.354Z,97472.91
2022-10-13T17:20:25.000Z,97568.91
2022-10-13T17:22:51.653Z,97412.28
2022-10-13T17:25:19.329Z,97603.06
2022-10-13T17:27:48.267Z,97594.94
2022-10-13T17:30:15.325Z,97555.81
2022-10-13T17:32:42.692Z,97529.81
2022-10-13T17:35:14.294Z,97510.38
2022-10-13T17:37:40.887Z,97614.56
2022-10-13T17:40:08.007Z,97590.03
2022-10-13T17:42:34.795Z,97498.44
2022-10-13T17:45:01.368Z,97621.34
2022-10-13T17:47:31.412Z,97613.34
2022-10-13T17:49:58.008Z,97611.25
2022-10-13T17:52:26.683Z,97613.59
2022-10-13T17:54:53.255Z,97575.34
2022-10-13T17:57:20.105Z,97597.38
2022-10-13T17:59:46.873Z,97584.75
2022-10-13T18:02:13.644Z,97603.25
2022-10-13T18:04:40.408Z,97603.81
2022-10-13T18:07:07.560Z,97598.88
2022-10-13T18:09:34.261Z,97581.16
2022-10-13T18:12:00.828Z,97602.22
2022-10-13T18:14:28.259Z,97528.81
2022-10-13T18:16:55.413Z,97465.31
2022-10-13T18:19:22.446Z,97520.50
2022-10-13T18:21:49.755Z,97600.28
2022-10-13T18:24:16.554Z,97607.38
2022-10-13T18:26:43.199Z,97581.56
2022-10-13T18:29:12.112Z,97585.50
2022-10-13T18:31:40.266Z,97588.69
2022-10-13T18:34:11.996Z,97539.63
2022-10-13T18:36:42.054Z,97582.44
2022-10-13T18:39:20.123Z,97453.47
2022-10-13T18:41:48.890Z,97487.16
2022-10-13T18:44:16.006Z,97594.19
2022-10-13T18:46:42.605Z,97565.13
2022-10-13T18:49:12.488Z,97602.63
2022-10-13T18:51:42.079Z,97549.53
2022-10-13T18:54:08.815Z,97615.81
2022-10-13T18:56:38.270Z,97522.78
2022-10-13T18:59:06.588Z,97549.56
2022-10-13T19:01:34.862Z,97601.59
2022-10-13T19:04:02.344Z,97579.91
2022-10-13T19:06:31.961Z,97594.88
2022-10-13T19:09:01.615Z,97589.75
2022-10-13T19:11:29.693Z,97584.34
2022-10-13T19:13:57.294Z,97437.44
2022-10-13T19:16:25.781Z,97582.84
2022-10-13T19:18:52.662Z,97581.06
2022-10-13T19:21:20.487Z,97579.38
2022-10-13T19:23:47.111Z,97574.94
2022-10-13T19:26:24.228Z,97576.75
2022-10-13T19:29:02.641Z,97575.13
2022-10-13T19:31:31.043Z,97577.09
2022-10-13T19:33:59.549Z,97556.25
2022-10-13T19:36:38.995Z,97485.13
2022-10-13T19:39:11.682Z,97568.06
2022-10-13T19:41:38.580Z,97414.44
2022-10-13T19:44:05.233Z,97564.16
2022-10-13T19:46:38.520Z,97528.25
2022-10-13T19:49:05.408Z,97522.50
2022-10-13T19:51:33.494Z,97518.41
2022-10-13T19:54:00.651Z,97557.06
2022-10-13T19:56:31.474Z,97555.44
2022-10-13T19:58:58.542Z,97553.94
2022-10-13T20:01:25.167Z,97574.41
2022-10-13T20:03:52.492Z,97548.19
2022-10-13T20:06:20.439Z,97414.50
2022-10-13T20:08:47.843Z,97556.97
2022-10-13T20:11:23.873Z,97554.53
2022-10-13T20:13:52.327Z,97555.50
2022-10-13T20:16:21.810Z,97475.41
2022-10-13T20:18:53.654Z,97562.59
2022-10-13T20:21:21.229Z,97449.16
2022-10-13T20:23:48.736Z,97468.53
2022-10-13T20:26:16.122Z,97420.06
2022-10-13T20:28:45.017Z,97421.19
2022-10-13T20:31:14.162Z,97507.88
2022-10-13T20:33:41.009Z,97459.88
2022-10-13T20:36:11.200Z,97530.28
2022-10-13T20:38:38.001Z,97540.16
2022-10-13T20:41:06.184Z,97539.50
2022-10-13T20:43:33.044Z,97545.91
2022-10-13T20:46:05.326Z,97547.75
2022-10-13T20:48:51.441Z,97553.81
2022-10-13T20:51:22.891Z,97537.41
2022-10-13T20:53:50.159Z,97434.84
2022-10-13T20:56:25.638Z,97500.94
2022-10-13T20:58:53.161Z,97538.72
2022-10-13T21:01:22.200Z,97519.38
2022-10-13T21:03:55.961Z,97551.47
2022-10-13T21:06:24.281Z,97557.59
2022-10-13T21:08:51.415Z,97578.66
2022-10-13T21:11:20.385Z,97549.19
2022-10-13T21:13:47.956Z,97556.63
2022-10-13T21:16:17.134Z,97554.22
2022-10-13T21:18:48.053Z,97573.75
2022-10-13T21:21:19.927Z,97557.81
2022-10-13T21:23:55.099Z,97546.25
2022-10-13T21:26:22.424Z,97542.63
2022-10-13T21:28:50.222Z,97434.78
2022-10-13T21:31:18.772Z,97526.00
2022-10-13T21:33:45.380Z,97393.44
2022-10-13T21:36:18.524Z,97536.06
2022-10-13T21:38:46.371Z,97449.94
2022-10-13T21:41:14.335Z,97545.31
2022-10-13T21:43:41.276Z,97547.47
2022-10-13T21:46:18.754Z,97547.81
2022-10-13T21:48:46.627Z,97382.72
2022-10-13T21:51:14.433Z,97545.84
2022-10-13T21:53:41.650Z,97549.66
2022-10-13T21:56:09.898Z,97548.34
2022-10-13T21:58:38.195Z,97549.88
2022-10-13T22:01:06.083Z,97554.66
2022-10-13T22:03:33.446Z,97559.94
2022-10-13T22:06:07.428Z,97513.13
2022-10-13T22:08:38.574Z,97392.13
2022-10-13T22:11:13.541Z,97523.19
2022-10-13T22:13:40.439Z,97560.63
2022-10-13T22:16:14.376Z,97563.25
2022-10-13T22:18:41.397Z,97551.94
2022-10-13T22:21:11.149Z,97564.09
2022-10-13T22:23:37.727Z,97567.69
2022-10-13T22:26:04.349Z,97457.66
2022-10-13T22:28:36.067Z,97570.31
2022-10-13T22:31:09.579Z,97571.50
2022-10-13T22:33:37.536Z,97546.19
2022-10-13T22:36:08.911Z,97511.03
2022-10-13T22:38:35.798Z,97519.22
2022-10-13T22:41:05.042Z,97506.44
2022-10-13T22:43:32.174Z,97513.16
2022-10-13T22:46:15.533Z,97440.41
2022-10-13T22:48:42.262Z,97414.78
2022-10-13T22:51:10.319Z,97566.25
2022-10-13T22:53:37.475Z,97564.56
2022-10-13T22:56:16.809Z,97555.03
2022-10-13T22:58:43.563Z,97561.44
2022-10-13T23:01:13.774Z,97540.59
2022-10-13T23:03:40.782Z,97555.53
2022-10-13T23:06:12.318Z,97505.28
2022-10-13T23:08:39.014Z,97417.94
2022-10-13T23:11:05.600Z,97518.13
2022-10-13T23:13:32.257Z,97546.19
2022-10-13T23:16:06.178Z,97557.53
2022-10-13T23:18:37.812Z,97410.03
2022-10-13T23:21:08.875Z,97556.72
2022-10-13T23:23:35.513Z,97453.41
2022-10-13T23:26:07.705Z,97471.47
2022-10-13T23:28:35.182Z,97471.28
2022-10-13T23:31:04.059Z,97553.25
2022-10-13T23:33:31.302Z,97435.63
2022-10-13T23:35:59.508Z,97422.69
2022-10-13T23:38:27.487Z,97555.72
2022-10-13T23:40:54.050Z,97554.56
2022-10-13T23:43:21.568Z,97522.38
2022-10-13T23:45:48.129Z,97555.84
2022-10-13T23:48:15.199Z,97551.06
2022-10-13T23:50:41.742Z,97478.00
2022-10-13T23:53:08.274Z,97549.09
2022-10-13T23:55:38.830Z,97555.19
2022-10-13T23:58:05.920Z,97555.66
